Time;durP1;ratioP1;P1;durP2;ratioP2;P2;SDS_P1;SDS_P2;PMS_P1;PMS_P2;Temp;Humidity;BMP_temperature;BMP_pressure;BME280_temperature;BME280_humidity;BME280_pressure;Samples;Min_cycle;Max_cycle;Signal;HPM_P1;HPM_P2
2022/02/08 00:04:29;;;;;;;12.43;3.65;;;;;;;3.22;58.92;101165.69;10465727;28;20382;-69
2022/02/08 00:09:32;;;;;;;13.27;3.00;;;;;;;3.23;58.84;101169.13;10466334;28;20048;-70
2022/02/08 00:14:34;;;;;;;10.32;2.92;;;;;;;3.17;58.71;101161.44;10464669;28;20044;-70
2022/02/08 00:19:36;;;;;;;9.07;2.78;;;;;;;3.12;59.00;101168.38;10465799;28;20054;-70
2022/02/08 00:24:37;;;;;;;12.57;3.42;;;;;;;3.16;58.88;101168.34;10465965;28;20973;-70
2022/02/08 00:29:39;;;;;;;12.05;2.92;;;;;;;3.27;58.78;101163.06;10466711;28;20052;-70
2022/02/08 00:34:41;;;;;;;13.35;2.63;;;;;;;3.26;58.69;101157.03;10465543;28;20416;-70
2022/02/08 00:39:43;;;;;;;9.60;2.50;;;;;;;3.26;58.82;101153.56;10466627;28;20408;-70
2022/02/08 00:44:50;;;;;;;13.13;2.60;;;;;;;3.34;58.75;101149.19;10466302;28;20057;-70
2022/02/08 00:49:52;;;;;;;7.80;2.22;;;;;;;3.36;58.77;101144.84;10465380;28;20044;-70
2022/02/08 00:54:53;;;;;;;7.60;2.67;;;;;;;3.40;58.66;101141.34;10466200;28;20044;-69
2022/02/08 00:59:55;;;;;;;9.90;2.58;;;;;;;3.45;58.39;101137.84;10467061;28;20048;-70
2022/02/08 01:05:00;;;;;;;11.13;2.30;;;;;;;3.52;58.34;101141.19;10464191;28;20053;-70
2022/02/08 01:10:03;;;;;;;11.35;2.50;;;;;;;3.62;58.29;101133.31;10464673;28;20051;-69
2022/02/08 01:15:06;;;;;;;10.77;2.60;;;;;;;3.54;58.39;101131.69;10463361;28;20041;-69
2022/02/08 01:20:13;;;;;;;10.10;2.53;;;;;;;3.61;58.22;101133.34;10464560;28;20340;-69
2022/02/08 01:25:25;;;;;;;9.50;2.17;;;;;;;3.67;58.32;101143.63;10464502;28;20057;-69
2022/02/08 01:30:44;;;;;;;10.65;2.85;;;;;;;3.71;58.17;101142.72;10466419;28;20052;-69
2022/02/08 01:36:19;;;;;;;13.43;2.78;;;;;;;3.73;58.00;101131.47;10463682;28;20040;-69
2022/02/08 01:51:13;;;;;;;10.10;2.30;;;;;;;3.76;58.21;101126.25;10463259;28;20303;-69
2022/02/08 01:56:15;;;;;;;9.15;2.45;;;;;;;3.88;58.16;101126.09;10464856;28;20438;-69
2022/02/08 02:01:17;;;;;;;9.25;2.70;;;;;;;3.88;58.21;101118.34;10464285;28;20044;-69
2022/02/08 02:06:19;;;;;;;11.07;2.97;;;;;;;3.98;58.27;101118.22;10461700;28;20430;-69
2022/02/08 02:11:20;;;;;;;9.77;2.58;;;;;;;3.97;58.33;101117.38;10464512;28;20040;-69
2022/02/08 02:16:34;;;;;;;11.18;2.83;;;;;;;4.06;58.21;101122.44;10464045;28;20052;-69
2022/02/08 02:21:36;;;;;;;11.40;2.28;;;;;;;4.07;58.62;101118.13;10465812;28;20041;-70
2022/02/08 02:26:38;;;;;;;14.05;2.75;;;;;;;4.11;58.64;101110.25;10471184;28;20045;-69
2022/02/08 02:31:42;;;;;;;13.35;2.67;;;;;;;4.14;58.77;101115.41;10470146;28;20070;-70
2022/02/08 02:36:45;;;;;;;9.43;2.45;;;;;;;4.06;59.22;101114.66;10470915;28;20052;-69
2022/02/08 02:41:46;;;;;;;11.93;2.88;;;;;;;4.10;59.43;101100.78;10471654;28;20087;-69
2022/02/08 02:46:49;;;;;;;13.93;2.60;;;;;;;4.08;59.68;101092.19;10471415;28;20605;-69
2022/02/08 02:51:51;;;;;;;17.52;3.20;;;;;;;4.17;59.93;101107.56;10467412;28;20054;-69
2022/02/08 02:56:58;;;;;;;12.90;2.60;;;;;;;4.02;60.82;101104.38;10472839;28;20048;-69
2022/02/08 03:18:09;;;;;;;16.63;3.05;;;;;;;4.15;61.82;101106.75;10477403;28;20048;-69
2022/02/08 03:23:10;;;;;;;16.42;3.28;;;;;;;4.17;62.03;101111.91;10471848;28;20041;-69
2022/02/08 03:28:12;;;;;;;12.68;2.92;;;;;;;4.19;62.07;101113.59;10474714;28;20063;-69
2022/02/08 03:33:14;;;;;;;13.75;3.13;;;;;;;4.18;62.22;101123.97;10476991;28;20137;-69
2022/02/08 03:38:18;;;;;;;14.23;3.00;;;;;;;4.21;62.52;101122.19;10476955;28;20049;-69
2022/02/08 03:48:24;;;;;;;10.93;2.70;;;;;;;4.22;63.41;101113.56;10476079;28;20135;-69
2022/02/08 03:53:26;;;;;;;14.88;3.17;;;;;;;4.14;63.89;101114.53;10471248;28;20051;-69
2022/02/08 03:58:28;;;;;;;16.35;3.70;;;;;;;4.38;63.12;101112.44;10473958;28;20045;-68
2022/02/08 04:03:33;;;;;;;14.75;3.00;;;;;;;4.46;63.03;101108.00;10471496;28;20050;-69
2022/02/08 04:08:35;;;;;;;13.18;2.83;;;;;;;4.48;63.02;101103.63;10468387;28;20051;-69
2022/02/08 04:13:51;;;;;;;12.93;2.88;;;;;;;4.45;62.90;101101.13;10468590;28;20057;-69
2022/02/08 04:44:48;;;;;;;13.02;3.10;;;;;;;4.41;62.97;101101.19;10467517;28;20048;-69
2022/02/08 04:49:53;;;;;;;11.85;3.25;;;;;;;4.55;62.69;101101.81;10467264;28;20510;-68
2022/02/08 05:47:43;;;;;;;14.77;2.97;;;;;;;4.60;65.55;101076.66;10466016;28;20045;-68
2022/02/08 05:57:46;;;;;;;12.85;3.20;;;;;;;4.54;66.42;101080.22;10470549;28;20044;-68
2022/02/08 06:02:49;;;;;;;11.55;3.08;;;;;;;4.52;67.21;101068.16;10472279;28;20044;-68
2022/02/08 06:07:51;;;;;;;15.95;3.55;;;;;;;4.56;66.93;101064.63;10473218;28;20044;-68
2022/02/08 06:12:55;;;;;;;12.55;3.00;;;;;;;4.60;66.81;101059.38;10472329;28;20053;-68
2022/02/08 06:17:58;;;;;;;10.13;4.80;;;;;;;4.63;67.02;101071.44;10470327;28;20048;-68
2022/02/08 06:23:03;;;;;;;14.20;3.50;;;;;;;4.67;66.75;101071.38;10470071;28;20045;-68
2022/02/08 06:28:05;;;;;;;9.88;3.10;;;;;;;4.86;66.23;101058.91;10471010;28;20059;-68
2022/02/08 06:33:07;;;;;;;9.65;2.72;;;;;;;4.84;66.22;101052.91;10473753;28;20058;-68
2022/02/08 06:38:12;;;;;;;14.85;3.33;;;;;;;4.82;66.04;101061.59;10473822;28;20052;-68
2022/02/08 06:43:14;;;;;;;8.90;3.08;;;;;;;4.84;66.06;101062.44;10473931;28;20295;-68
2022/02/08 06:48:17;;;;;;;13.40;3.20;;;;;;;4.82;66.54;101053.84;10473354;28;20380;-68
2022/02/08 06:53:18;;;;;;;11.75;3.20;;;;;;;4.96;66.32;101069.97;10471217;28;20052;-68
2022/02/08 06:58:24;;;;;;;13.23;3.63;;;;;;;5.03;66.26;101064.63;10469849;28;20049;-68
2022/02/08 07:03:26;;;;;;;12.60;3.38;;;;;;;5.01;66.44;101066.41;10469392;28;20052;-67
2022/02/08 07:08:27;;;;;;;13.10;3.13;;;;;;;4.97;66.83;101069.94;10468613;28;20051;-68
2022/02/08 07:13:29;;;;;;;13.02;3.30;;;;;;;4.98;66.73;101079.44;10470544;28;20045;-68
2022/02/08 07:18:31;;;;;;;13.45;3.80;;;;;;;5.07;66.30;101079.25;10470719;28;20047;-67
2022/02/08 07:23:32;;;;;;;12.93;3.65;;;;;;;5.12;66.57;101097.31;10470012;28;20091;-68
2022/02/08 07:28:41;;;;;;;12.60;3.10;;;;;;;5.31;66.01;101099.50;10468195;28;20071;-68
2022/02/08 07:33:53;;;;;;;15.13;3.20;;;;;;;5.29;66.03;101108.19;10466920;28;20342;-68
2022/02/08 07:38:55;;;;;;;11.07;3.13;;;;;;;5.43;65.71;101104.47;10468943;28;20131;-67
2022/02/08 07:43:57;;;;;;;12.32;3.30;;;;;;;5.45;65.88;101089.72;10467624;28;20066;-68
2022/02/08 07:49:01;;;;;;;11.73;3.28;;;;;;;5.55;65.71;101098.19;10468753;28;20451;-67
2022/02/08 07:54:04;;;;;;;12.73;3.13;;;;;;;5.73;65.02;101097.78;10470998;28;20052;-68
2022/02/08 07:59:05;;;;;;;10.75;3.13;;;;;;;5.84;64.84;101093.22;10469466;28;20037;-68
2022/02/08 08:04:07;;;;;;;12.23;3.28;;;;;;;5.83;64.69;101091.50;10469456;28;20052;-68
2022/02/08 08:09:09;;;;;;;11.30;3.30;;;;;;;5.75;64.83;101079.59;10470583;28;20128;-68
2022/02/08 08:14:12;;;;;;;11.82;3.20;;;;;;;5.63;65.02;101101.47;10469522;28;20046;-68
2022/02/08 08:24:16;;;;;;;8.05;2.78;;;;;;;6.22;63.94;101103.59;10469485;28;20140;-68
2022/02/08 08:29:18;;;;;;;10.02;2.70;;;;;;;6.59;63.17;101100.16;10469031;28;20052;-68
2022/02/08 08:34:20;;;;;;;10.43;2.85;;;;;;;6.60;63.04;101099.22;10470539;28;20177;-68
2022/02/08 08:39:26;;;;;;;6.88;2.58;;;;;;;6.97;62.46;101098.25;10468278;28;20151;-68
2022/02/08 08:50:09;;;;;;;7.80;2.55;;;;;;;7.10;62.01;101089.22;10470477;28;20056;-68
2022/02/08 08:55:12;;;;;;;7.78;2.40;;;;;;;7.11;62.11;101093.53;10467534;28;20139;-68
2022/02/08 09:00:14;;;;;;;8.55;2.35;;;;;;;7.01;62.24;101093.81;10468735;28;20308;-68
2022/02/08 09:05:17;;;;;;;5.32;2.10;;;;;;;6.98;62.30;101093.91;10482567;28;20066;-67
2022/02/08 09:10:23;;;;;;;7.60;2.38;;;;;;;6.95;62.48;101099.19;10467937;28;20055;-68
2022/02/08 09:31:13;;;;;;;6.25;1.80;;;;;;;6.87;62.87;101083.81;10476314;28;20508;-68
2022/02/08 09:36:24;;;;;;;5.47;1.80;;;;;;;6.94;62.87;101089.66;10476332;28;20053;-68
2022/02/08 09:41:30;;;;;;;6.97;1.85;;;;;;;6.98;62.68;101094.75;10474934;28;20040;-68
2022/02/08 09:46:35;;;;;;;5.80;1.70;;;;;;;7.00;62.32;101098.16;10472841;28;20140;-67
2022/02/08 09:51:43;;;;;;;5.35;1.80;;;;;;;7.14;62.31;101105.63;10474564;28;20053;-68
2022/02/08 09:56:46;;;;;;;4.70;1.75;;;;;;;7.26;62.06;101125.25;10472770;28;20048;-68
2022/02/08 10:01:55;;;;;;;5.72;1.80;;;;;;;7.31;61.80;101125.94;10475922;28;20048;-68
2022/02/08 10:07:13;;;;;;;3.80;1.65;;;;;;;7.47;61.11;101128.09;10475291;28;20501;-68
2022/02/08 10:12:20;;;;;;;4.05;1.40;;;;;;;7.69;61.15;101128.34;10476380;28;20051;-68
2022/02/08 10:22:50;;;;;;;6.53;1.50;;;;;;;7.88;60.84;101132.97;10472248;28;20053;-68
2022/02/08 10:28:09;;;;;;;2.90;1.40;;;;;;;7.69;61.21;101137.00;10472473;28;20171;-68
2022/02/08 10:38:21;;;;;;;5.53;2.22;;;;;;;7.78;60.96;101139.34;10477951;28;20181;-68
2022/02/08 10:43:23;;;;;;;2.67;1.60;;;;;;;8.01;60.66;101136.94;10473716;28;20488;-68
2022/02/08 10:48:30;;;;;;;4.68;1.83;;;;;;;8.02;60.63;101145.56;10474405;28;20596;-68
2022/02/08 10:53:39;;;;;;;6.88;2.08;;;;;;;7.98;60.60;101133.53;10473831;28;20056;-68
2022/02/08 10:58:52;;;;;;;5.28;1.70;;;;;;;8.14;60.42;101139.19;10472864;28;20048;-68
2022/02/08 11:04:11;;;;;;;7.45;3.00;;;;;;;8.35;60.06;101136.75;10471364;28;20428;-68
2022/02/08 11:19:41;;;;;;;5.47;2.53;;;;;;;8.52;59.77;101144.03;10472737;28;20495;-67
2022/02/08 11:24:50;;;;;;;4.30;2.00;;;;;;;8.36;61.06;101146.31;10470659;28;20532;-67
2022/02/08 11:30:03;;;;;;;5.63;2.22;;;;;;;8.04;62.45;101143.78;10470015;28;20059;-67
2022/02/08 12:07:36;;;;;;;19.20;10.73;;;;;;;8.82;60.47;101080.44;10466510;28;20082;-66
2022/02/08 12:50:44;;;;;;;5.40;2.60;;;;;;;8.78;59.41;101082.31;10467581;28;20473;-67
2022/02/08 12:55:50;;;;;;;6.28;2.20;;;;;;;8.80;59.98;101083.09;10467455;28;20091;-67
2022/02/08 14:20:57;;;;;;;3.30;1.50;;;;;;;8.29;61.46;101081.38;10431104;28;20147;-67
2022/02/08 15:08:38;;;;;;;2.17;1.37;;;;;;;8.16;61.80;101096.53;10471738;28;20059;-67
2022/02/08 15:13:45;;;;;;;2.83;1.67;;;;;;;8.17;61.92;101097.38;10454048;28;20053;-68
2022/02/08 15:18:47;;;;;;;3.58;1.52;;;;;;;8.02;62.17;101096.94;10471772;28;20600;-67
2022/02/08 15:23:50;;;;;;;2.33;1.50;;;;;;;8.03;62.26;101092.59;10471814;28;20057;-67
2022/02/08 15:28:52;;;;;;;3.05;1.90;;;;;;;8.07;62.15;101103.75;10469048;28;21271;-67
2022/02/08 15:33:56;;;;;;;3.10;2.03;;;;;;;8.12;62.01;101094.09;10471164;28;20139;-67
2022/02/08 15:39:06;;;;;;;4.18;1.77;;;;;;;8.09;62.11;101101.97;10470262;28;20416;-67
2022/02/08 15:44:16;;;;;;;3.63;2.00;;;;;;;8.17;61.92;101095.63;10470546;28;20131;-67
2022/02/08 15:49:18;;;;;;;2.33;1.40;;;;;;;8.12;62.00;101096.69;10470295;28;20106;-66
2022/02/08 15:54:40;;;;;;;3.75;1.58;;;;;;;8.04;62.23;101096.88;10470101;28;20063;-66
2022/02/08 16:05:21;;;;;;;4.18;2.70;;;;;;;8.06;62.32;101104.66;10476752;28;20162;-66
2022/02/08 16:10:57;;;;;;;37.83;15.88;;;;;;;8.02;62.31;101099.53;10487321;28;20052;-66
2022/02/08 16:52:50;;;;;;;2.67;1.40;;;;;;;7.87;63.16;101114.78;10463241;28;20052;-68
2022/02/08 16:58:08;;;;;;;2.22;1.50;;;;;;;7.90;63.01;101119.88;10467610;28;20056;-68
2022/02/08 17:03:10;;;;;;;2.35;1.30;;;;;;;7.85;63.38;101122.63;10485146;28;20485;-68
2022/02/08 17:08:13;;;;;;;2.83;1.40;;;;;;;7.81;63.53;101126.22;10460203;28;20052;-67
2022/02/08 17:50:17;;;;;;;7.10;3.05;;;;;;;7.81;64.04;101135.81;10466272;28;20127;-71
2022/02/08 17:55:20;;;;;;;12.35;5.88;;;;;;;7.73;64.26;101138.63;10475489;28;20130;-71
2022/02/08 18:00:22;;;;;;;11.35;4.90;;;;;;;7.76;64.34;101135.94;10473251;28;20393;-71
2022/02/08 18:05:25;;;;;;;6.57;3.67;;;;;;;7.77;64.31;101145.44;10474050;28;20102;-71
2022/02/08 18:10:28;;;;;;;3.13;1.80;;;;;;;7.84;64.21;101139.16;10474787;28;20045;-72
2022/02/08 18:15:30;;;;;;;2.53;1.60;;;;;;;7.77;64.40;101148.03;10470947;28;20328;-71
2022/02/08 18:20:40;;;;;;;2.65;1.73;;;;;;;7.76;64.54;101154.16;10471664;28;20155;-71
2022/02/08 19:08:50;;;;;;;2.70;1.60;;;;;;;7.77;65.07;101168.88;10470979;28;20921;-71
2022/02/08 19:19:03;;;;;;;3.10;1.65;;;;;;;7.94;64.82;101171.00;10474381;28;20067;-70
2022/02/08 19:24:06;;;;;;;2.70;1.70;;;;;;;7.89;64.83;101158.13;10472131;28;20785;-69
2022/02/08 19:29:08;;;;;;;6.97;4.80;;;;;;;7.88;65.04;101160.75;10472434;28;20480;-69
2022/02/08 19:34:10;;;;;;;6.00;3.83;;;;;;;7.86;64.93;101160.81;10471276;28;20036;-70
2022/02/08 19:39:13;;;;;;;4.35;2.10;;;;;;;7.88;65.04;101158.16;10471691;28;20052;-68
2022/02/08 19:44:15;;;;;;;2.33;1.80;;;;;;;7.90;64.96;101152.00;10470565;28;20490;-68
2022/02/08 19:49:17;;;;;;;3.67;2.13;;;;;;;7.89;65.06;101150.31;10469767;28;20511;-69
2022/02/08 19:54:24;;;;;;;3.35;2.03;;;;;;;7.94;64.89;101152.75;10471896;28;20247;-69
2022/02/08 19:59:34;;;;;;;3.00;1.90;;;;;;;7.86;64.96;101149.53;10471603;28;20064;-69
2022/02/08 20:04:36;;;;;;;3.28;2.05;;;;;;;7.94;64.95;101148.41;10469420;28;20127;-69
2022/02/08 20:09:38;;;;;;;3.95;2.00;;;;;;;7.91;64.97;101158.06;10469891;28;20576;-68
2022/02/08 20:15:00;;;;;;;4.07;2.10;;;;;;;7.92;65.05;101154.56;10468404;28;20056;-68
2022/02/08 20:20:09;;;;;;;2.90;2.10;;;;;;;7.94;64.90;101158.84;10470621;28;20040;-68
2022/02/08 20:25:12;;;;;;;6.30;3.22;;;;;;;7.90;64.98;101152.00;10467987;28;20230;-69
2022/02/08 20:30:18;;;;;;;3.50;2.30;;;;;;;8.00;64.75;101147.38;10468724;28;20424;-69
2022/02/08 20:35:21;;;;;;;3.53;2.20;;;;;;;7.99;64.73;101146.53;10469490;28;20059;-70
2022/02/08 20:40:23;;;;;;;4.05;2.30;;;;;;;7.92;65.01;101158.03;10467461;28;20058;-69
2022/02/08 20:45:24;;;;;;;4.05;2.50;;;;;;;8.00;64.70;101166.47;10466117;28;20041;-70
2022/02/08 20:50:27;;;;;;;3.92;2.60;;;;;;;8.02;64.70;101161.19;10466449;28;20079;-70
2022/02/08 20:55:49;;;;;;;5.18;3.75;;;;;;;8.06;64.78;101160.22;10466115;28;20060;-70
2022/02/08 21:00:51;;;;;;;5.60;3.78;;;;;;;8.03;64.56;101171.59;10465158;28;20417;-69
2022/02/08 21:06:06;;;;;;;7.03;4.88;;;;;;;8.09;64.40;101161.88;10465883;28;20044;-70
2022/02/08 21:11:08;;;;;;;12.10;6.68;;;;;;;8.10;64.52;101161.00;10465535;28;20305;-71
2022/02/08 21:16:18;;;;;;;6.88;4.88;;;;;;;8.06;64.45;101172.41;10464882;28;20076;-71
2022/02/08 21:21:21;;;;;;;5.67;3.60;;;;;;;7.99;64.46;101175.19;10465022;28;20087;-70
2022/02/08 21:26:27;;;;;;;3.80;2.47;;;;;;;8.11;64.24;101174.00;10465959;28;21035;-70
2022/02/08 21:52:45;;;;;;;5.07;3.40;;;;;;;8.04;64.14;101185.47;10474744;28;20058;-69
2022/02/08 21:57:54;;;;;;;6.22;4.90;;;;;;;8.07;64.10;101184.53;10473678;28;20470;-69
2022/02/08 22:02:57;;;;;;;5.13;2.83;;;;;;;8.11;64.00;101180.97;10472169;28;20867;-69
2022/02/08 22:08:15;;;;;;;4.03;2.47;;;;;;;8.22;63.67;101178.91;10468396;28;20383;-69
2022/02/08 22:18:53;;;;;;;5.72;3.03;;;;;;;8.11;63.82;101192.25;10472782;28;20052;-69
2022/02/08 22:24:04;;;;;;;5.13;2.65;;;;;;;8.16;63.69;101189.50;10472589;28;20064;-69
2022/02/08 22:34:22;;;;;;;3.80;2.30;;;;;;;8.23;63.61;101194.47;10475776;28;20044;-69
2022/02/08 22:39:32;;;;;;;5.50;2.88;;;;;;;8.22;63.58;101190.16;10472247;28;20352;-69
2022/02/08 22:44:44;;;;;;;4.07;2.70;;;;;;;8.22;63.49;101190.16;10472598;28;20047;-68
2022/02/08 22:49:47;;;;;;;5.25;2.80;;;;;;;8.22;63.62;101189.31;10471783;28;20052;-69
2022/02/08 22:54:49;;;;;;;4.55;2.72;;;;;;;8.23;63.45;101193.63;10471626;28;20625;-69
2022/02/08 22:59:54;;;;;;;5.18;2.88;;;;;;;8.29;63.37;101193.44;10474023;28;20427;-69
2022/02/08 23:04:56;;;;;;;4.70;2.70;;;;;;;8.34;63.18;101194.16;10471127;28;20037;-69
2022/02/08 23:10:05;;;;;;;4.10;2.50;;;;;;;8.22;63.34;101182.34;10471196;28;20053;-69
2022/02/08 23:41:44;;;;;;;4.03;2.55;;;;;;;8.11;63.32;101171.41;10466842;28;20055;-68
2022/02/08 23:46:46;;;;;;;4.38;2.58;;;;;;;8.11;63.30;101175.75;10468266;28;20057;-68
2022/02/08 23:51:49;;;;;;;3.90;2.75;;;;;;;8.08;63.33;101176.66;10466412;28;20411;-68
2022/02/08 23:56:58;;;;;;;5.35;2.88;;;;;;;8.00;63.45;101184.69;10465735;28;20048;-69
